<?xml version="1.0" encoding="UTF-8" standalone="no" ?>
<gpx xmlns="http://www.topografix.com/GPX/1/1" xmlns:xsi="http://www.w3.org/2001/XMLSchema-instance" xsi:schemaLocation="http://www.topografix.com/GPX/1/1 http://www.topografix.com/GPX/1/1/gpx.xsd" version="1.1" creator="VisuGPX - https://www.visugpx.com">
  <metadata>
    <name>Le Pic de Nore</name>
    <desc><![CDATA[La montagne noir, département Aude]]></desc>
  </metadata>
  <wpt lat="43.40193" lon="2.44042">
    <ele>781</ele>
    <name><![CDATA[Point de passage 1]]></name>
  </wpt>
  <wpt lat="43.40207" lon="2.44385">
    <ele>780</ele>
    <name><![CDATA[Intersection et GR36]]></name>
  </wpt>
  <wpt lat="43.40746" lon="2.446">
    <ele>814</ele>
    <name><![CDATA[Route D112]]></name>
  </wpt>
  <wpt lat="43.41175" lon="2.44768">
    <ele>836</ele>
    <name><![CDATA[Intersection]]></name>
  </wpt>
  <wpt lat="43.4148" lon="2.4571">
    <ele>1055</ele>
    <name><![CDATA[Roquo d'AstiÃ©]]></name>
  </wpt>
  <wpt lat="43.41881" lon="2.46142">
    <ele>1108</ele>
    <name><![CDATA[Route D87]]></name>
  </wpt>
  <wpt lat="43.42425" lon="2.46335">
    <ele>1209</ele>
    <name><![CDATA[Point de passage 7]]></name>
  </wpt>
  <wpt lat="43.42144" lon="2.46322">
    <ele>1141</ele>
    <name><![CDATA[Route D87]]></name>
  </wpt>
  <wpt lat="43.42201" lon="2.45733">
    <ele>1088</ele>
    <name><![CDATA[Piste]]></name>
  </wpt>
  <wpt lat="43.42114" lon="2.44752">
    <ele>1044</ele>
    <name><![CDATA[Fin de piste. Balisage Jaune]]></name>
  </wpt>
  <wpt lat="43.42257" lon="2.44051">
    <ele>1029</ele>
    <name><![CDATA[Intersection d'itinÃ©raires]]></name>
  </wpt>
  <wpt lat="43.41943" lon="2.44035">
    <ele>966</ele>
    <name><![CDATA[Cabane d'HÃ©lÃ¨ne]]></name>
  </wpt>
  <wpt lat="43.40835" lon="2.44191">
    <ele>851</ele>
    <name><![CDATA[Intersection Route D87 - Cote de Pech]]></name>
  </wpt>
  <wpt lat="43.40192" lon="2.44041">
    <ele>781</ele>
    <name><![CDATA[Lac de Pradelles]]></name>
  </wpt>
  <trk>
    <name><![CDATA[Le Pic de Nore]]></name>
    <extensions>
      <line xmlns="http://www.topografix.com/GPX/gpx_style/0/2">
        <color>0000FF</color>
        <width>4</width>
      </line>
    </extensions>
    <trkseg>
      <trkpt lat="43.40193" lon="2.44042">
        <ele>781</ele>
        <time>2022-05-09T05:29:57.000Z</time>
      </trkpt>
      <trkpt lat="43.40201" lon="2.44207">
        <ele>781</ele>
        <time>2022-05-09T05:30:46.000Z</time>
      </trkpt>
      <trkpt lat="43.40203" lon="2.44241">
        <ele>781</ele>
        <time>2022-05-09T05:31:10.000Z</time>
      </trkpt>
      <trkpt lat="43.40203" lon="2.44275">
        <ele>781</ele>
        <time>2022-05-09T05:31:34.000Z</time>
      </trkpt>
      <trkpt lat="43.40205" lon="2.4431">
        <ele>781</ele>
        <time>2022-05-09T05:31:54.000Z</time>
      </trkpt>
      <trkpt lat="43.40207" lon="2.44385">
        <ele>780</ele>
        <time>2022-05-09T05:32:14.000Z</time>
      </trkpt>
      <trkpt lat="43.40328" lon="2.44469">
        <ele>789</ele>
        <time>2022-05-09T05:36:22.000Z</time>
      </trkpt>
      <trkpt lat="43.40464" lon="2.44615">
        <ele>804</ele>
        <time>2022-05-09T05:42:14.000Z</time>
      </trkpt>
      <trkpt lat="43.40566" lon="2.44656">
        <ele>807</ele>
        <time>2022-05-09T05:44:47.000Z</time>
      </trkpt>
      <trkpt lat="43.40746" lon="2.446">
        <ele>814</ele>
        <time>2022-05-09T05:49:31.000Z</time>
      </trkpt>
      <trkpt lat="43.40778" lon="2.44599">
        <ele>819</ele>
        <time>2022-05-09T05:50:59.000Z</time>
      </trkpt>
      <trkpt lat="43.40864" lon="2.44565">
        <ele>837</ele>
        <time>2022-05-09T05:48:08.000Z</time>
      </trkpt>
      <trkpt lat="43.40884" lon="2.4462">
        <ele>837</ele>
        <time>2022-05-09T05:49:19.000Z</time>
      </trkpt>
      <trkpt lat="43.40891" lon="2.4465">
        <ele>837</ele>
        <time>2022-05-09T05:49:36.000Z</time>
      </trkpt>
      <trkpt lat="43.40908" lon="2.44671">
        <ele>835</ele>
        <time>2022-05-09T05:49:55.000Z</time>
      </trkpt>
      <trkpt lat="43.4093" lon="2.44678">
        <ele>838</ele>
        <time>2022-05-09T05:50:14.000Z</time>
      </trkpt>
      <trkpt lat="43.4095" lon="2.44695">
        <ele>837</ele>
        <time>2022-05-09T05:50:35.000Z</time>
      </trkpt>
      <trkpt lat="43.40971" lon="2.44708">
        <ele>835</ele>
        <time>2022-05-09T05:50:51.000Z</time>
      </trkpt>
      <trkpt lat="43.40996" lon="2.44711">
        <ele>837</ele>
        <time>2022-05-09T05:51:09.000Z</time>
      </trkpt>
      <trkpt lat="43.41019" lon="2.44711">
        <ele>838</ele>
        <time>2022-05-09T05:51:52.000Z</time>
      </trkpt>
      <trkpt lat="43.41037" lon="2.44731">
        <ele>835</ele>
        <time>2022-05-09T05:53:38.000Z</time>
      </trkpt>
      <trkpt lat="43.4106" lon="2.44746">
        <ele>834</ele>
        <time>2022-05-09T05:53:55.000Z</time>
      </trkpt>
      <trkpt lat="43.4108" lon="2.44759">
        <ele>833</ele>
        <time>2022-05-09T05:54:13.000Z</time>
      </trkpt>
      <trkpt lat="43.41105" lon="2.44758">
        <ele>835</ele>
        <time>2022-05-09T05:54:51.000Z</time>
      </trkpt>
      <trkpt lat="43.41129" lon="2.44762">
        <ele>835</ele>
        <time>2022-05-09T05:55:11.000Z</time>
      </trkpt>
      <trkpt lat="43.41152" lon="2.44772">
        <ele>834</ele>
        <time>2022-05-09T05:55:33.000Z</time>
      </trkpt>
      <trkpt lat="43.41175" lon="2.44768">
        <ele>836</ele>
        <time>2022-05-09T05:55:50.000Z</time>
      </trkpt>
      <trkpt lat="43.41199" lon="2.44776">
        <ele>835</ele>
        <time>2022-05-09T05:56:31.000Z</time>
      </trkpt>
      <trkpt lat="43.41222" lon="2.44782">
        <ele>834</ele>
        <time>2022-05-09T05:56:52.000Z</time>
      </trkpt>
      <trkpt lat="43.4124" lon="2.44804">
        <ele>835</ele>
        <time>2022-05-09T05:58:12.000Z</time>
      </trkpt>
      <trkpt lat="43.41227" lon="2.44829">
        <ele>837</ele>
        <time>2022-05-09T05:58:43.000Z</time>
      </trkpt>
      <trkpt lat="43.41205" lon="2.44844">
        <ele>840</ele>
        <time>2022-05-09T05:59:06.000Z</time>
      </trkpt>
      <trkpt lat="43.41186" lon="2.44861">
        <ele>843</ele>
        <time>2022-05-09T05:59:28.000Z</time>
      </trkpt>
      <trkpt lat="43.41166" lon="2.44876">
        <ele>844</ele>
        <time>2022-05-09T05:59:54.000Z</time>
      </trkpt>
      <trkpt lat="43.41146" lon="2.44894">
        <ele>846</ele>
        <time>2022-05-09T06:00:16.000Z</time>
      </trkpt>
      <trkpt lat="43.41125" lon="2.44911">
        <ele>847</ele>
        <time>2022-05-09T06:00:40.000Z</time>
      </trkpt>
      <trkpt lat="43.41112" lon="2.44938">
        <ele>850</ele>
        <time>2022-05-09T06:01:10.000Z</time>
      </trkpt>
      <trkpt lat="43.41094" lon="2.44958">
        <ele>853</ele>
        <time>2022-05-09T06:01:34.000Z</time>
      </trkpt>
      <trkpt lat="43.41078" lon="2.44984">
        <ele>855</ele>
        <time>2022-05-09T06:01:59.000Z</time>
      </trkpt>
      <trkpt lat="43.41067" lon="2.45013">
        <ele>858</ele>
        <time>2022-05-09T06:02:31.000Z</time>
      </trkpt>
      <trkpt lat="43.41053" lon="2.45039">
        <ele>862</ele>
        <time>2022-05-09T06:03:05.000Z</time>
      </trkpt>
      <trkpt lat="43.41043" lon="2.45068">
        <ele>865</ele>
        <time>2022-05-09T06:03:35.000Z</time>
      </trkpt>
      <trkpt lat="43.41035" lon="2.45098">
        <ele>869</ele>
        <time>2022-05-09T06:04:24.000Z</time>
      </trkpt>
      <trkpt lat="43.4103" lon="2.4513">
        <ele>873</ele>
        <time>2022-05-09T06:07:00.000Z</time>
      </trkpt>
      <trkpt lat="43.4103" lon="2.45162">
        <ele>878</ele>
        <time>2022-05-09T06:08:36.000Z</time>
      </trkpt>
      <trkpt lat="43.4104" lon="2.45194">
        <ele>884</ele>
        <time>2022-05-09T06:10:58.000Z</time>
      </trkpt>
      <trkpt lat="43.41055" lon="2.45217">
        <ele>889</ele>
        <time>2022-05-09T06:11:23.000Z</time>
      </trkpt>
      <trkpt lat="43.41072" lon="2.4524">
        <ele>895</ele>
        <time>2022-05-09T06:12:57.000Z</time>
      </trkpt>
      <trkpt lat="43.4109" lon="2.45265">
        <ele>903</ele>
        <time>2022-05-09T06:13:31.000Z</time>
      </trkpt>
      <trkpt lat="43.41106" lon="2.45288">
        <ele>908</ele>
        <time>2022-05-09T06:14:29.000Z</time>
      </trkpt>
      <trkpt lat="43.41124" lon="2.45308">
        <ele>915</ele>
        <time>2022-05-09T06:15:10.000Z</time>
      </trkpt>
      <trkpt lat="43.4114" lon="2.4533">
        <ele>921</ele>
        <time>2022-05-09T06:15:46.000Z</time>
      </trkpt>
      <trkpt lat="43.41156" lon="2.45354">
        <ele>927</ele>
        <time>2022-05-09T06:16:50.000Z</time>
      </trkpt>
      <trkpt lat="43.41176" lon="2.4537">
        <ele>933</ele>
        <time>2022-05-09T06:17:28.000Z</time>
      </trkpt>
      <trkpt lat="43.41189" lon="2.45395">
        <ele>941</ele>
        <time>2022-05-09T06:18:41.000Z</time>
      </trkpt>
      <trkpt lat="43.41211" lon="2.45409">
        <ele>948</ele>
        <time>2022-05-09T06:19:18.000Z</time>
      </trkpt>
      <trkpt lat="43.41226" lon="2.45434">
        <ele>953</ele>
        <time>2022-05-09T06:20:19.000Z</time>
      </trkpt>
      <trkpt lat="43.41242" lon="2.45457">
        <ele>961</ele>
        <time>2022-05-09T06:21:02.000Z</time>
      </trkpt>
      <trkpt lat="43.41258" lon="2.45481">
        <ele>966</ele>
        <time>2022-05-09T06:21:49.000Z</time>
      </trkpt>
      <trkpt lat="43.41273" lon="2.45507">
        <ele>975</ele>
        <time>2022-05-09T06:23:06.000Z</time>
      </trkpt>
      <trkpt lat="43.41294" lon="2.45525">
        <ele>982</ele>
        <time>2022-05-09T06:24:13.000Z</time>
      </trkpt>
      <trkpt lat="43.41313" lon="2.45542">
        <ele>989</ele>
        <time>2022-05-09T06:25:17.000Z</time>
      </trkpt>
      <trkpt lat="43.41321" lon="2.45571">
        <ele>995</ele>
        <time>2022-05-09T06:26:17.000Z</time>
      </trkpt>
      <trkpt lat="43.41329" lon="2.45603">
        <ele>1000</ele>
        <time>2022-05-09T06:28:03.000Z</time>
      </trkpt>
      <trkpt lat="43.41331" lon="2.45635">
        <ele>1004</ele>
        <time>2022-05-09T06:28:23.000Z</time>
      </trkpt>
      <trkpt lat="43.4134" lon="2.45665">
        <ele>1010</ele>
        <time>2022-05-09T06:29:03.000Z</time>
      </trkpt>
      <trkpt lat="43.41356" lon="2.45688">
        <ele>1015</ele>
        <time>2022-05-09T06:29:50.000Z</time>
      </trkpt>
      <trkpt lat="43.41362" lon="2.45724">
        <ele>1020</ele>
        <time>2022-05-09T06:30:18.000Z</time>
      </trkpt>
      <trkpt lat="43.41374" lon="2.45753">
        <ele>1023</ele>
        <time>2022-05-09T06:31:02.000Z</time>
      </trkpt>
      <trkpt lat="43.41392" lon="2.45772">
        <ele>1030</ele>
        <time>2022-05-09T06:31:33.000Z</time>
      </trkpt>
      <trkpt lat="43.41414" lon="2.45779">
        <ele>1037</ele>
        <time>2022-05-09T06:32:17.000Z</time>
      </trkpt>
      <trkpt lat="43.41438" lon="2.45776">
        <ele>1044</ele>
        <time>2022-05-09T06:32:58.000Z</time>
      </trkpt>
      <trkpt lat="43.41461" lon="2.45771">
        <ele>1049</ele>
        <time>2022-05-09T06:33:51.000Z</time>
      </trkpt>
      <trkpt lat="43.41464" lon="2.45735">
        <ele>1051</ele>
        <time>2022-05-09T06:34:21.000Z</time>
      </trkpt>
      <trkpt lat="43.4148" lon="2.4571">
        <ele>1055</ele>
        <time>2022-05-09T06:34:56.000Z</time>
      </trkpt>
      <trkpt lat="43.41498" lon="2.4573">
        <ele>1058</ele>
        <time>2022-05-09T06:38:06.000Z</time>
      </trkpt>
      <trkpt lat="43.41515" lon="2.45751">
        <ele>1059</ele>
        <time>2022-05-09T06:38:30.000Z</time>
      </trkpt>
      <trkpt lat="43.41522" lon="2.45783">
        <ele>1057</ele>
        <time>2022-05-09T06:40:11.000Z</time>
      </trkpt>
      <trkpt lat="43.41545" lon="2.45778">
        <ele>1056</ele>
        <time>2022-05-09T06:40:29.000Z</time>
      </trkpt>
      <trkpt lat="43.41563" lon="2.45798">
        <ele>1056</ele>
        <time>2022-05-09T06:40:45.000Z</time>
      </trkpt>
      <trkpt lat="43.41579" lon="2.45822">
        <ele>1056</ele>
        <time>2022-05-09T06:41:02.000Z</time>
      </trkpt>
      <trkpt lat="43.41598" lon="2.45841">
        <ele>1057</ele>
        <time>2022-05-09T06:41:19.000Z</time>
      </trkpt>
      <trkpt lat="43.41618" lon="2.45858">
        <ele>1057</ele>
        <time>2022-05-09T06:41:37.000Z</time>
      </trkpt>
      <trkpt lat="43.41636" lon="2.45878">
        <ele>1060</ele>
        <time>2022-05-09T06:41:56.000Z</time>
      </trkpt>
      <trkpt lat="43.41657" lon="2.45899">
        <ele>1062</ele>
        <time>2022-05-09T06:42:17.000Z</time>
      </trkpt>
      <trkpt lat="43.41676" lon="2.45918">
        <ele>1065</ele>
        <time>2022-05-09T06:42:36.000Z</time>
      </trkpt>
      <trkpt lat="43.41695" lon="2.45937">
        <ele>1070</ele>
        <time>2022-05-09T06:42:57.000Z</time>
      </trkpt>
      <trkpt lat="43.41713" lon="2.45959">
        <ele>1073</ele>
        <time>2022-05-09T06:43:23.000Z</time>
      </trkpt>
      <trkpt lat="43.41733" lon="2.45975">
        <ele>1078</ele>
        <time>2022-05-09T06:43:49.000Z</time>
      </trkpt>
      <trkpt lat="43.4175" lon="2.45998">
        <ele>1082</ele>
        <time>2022-05-09T06:44:19.000Z</time>
      </trkpt>
      <trkpt lat="43.4177" lon="2.46018">
        <ele>1087</ele>
        <time>2022-05-09T06:44:53.000Z</time>
      </trkpt>
      <trkpt lat="43.41789" lon="2.46038">
        <ele>1090</ele>
        <time>2022-05-09T06:45:32.000Z</time>
      </trkpt>
      <trkpt lat="43.41808" lon="2.46058">
        <ele>1094</ele>
        <time>2022-05-09T06:46:05.000Z</time>
      </trkpt>
      <trkpt lat="43.41825" lon="2.4608">
        <ele>1097</ele>
        <time>2022-05-09T06:46:43.000Z</time>
      </trkpt>
      <trkpt lat="43.41845" lon="2.46102">
        <ele>1102</ele>
        <time>2022-05-09T06:47:14.000Z</time>
      </trkpt>
      <trkpt lat="43.41863" lon="2.46124">
        <ele>1106</ele>
        <time>2022-05-09T06:47:41.000Z</time>
      </trkpt>
      <trkpt lat="43.41881" lon="2.46142">
        <ele>1108</ele>
        <time>2022-05-09T06:48:23.000Z</time>
      </trkpt>
      <trkpt lat="43.419" lon="2.4616">
        <ele>1113</ele>
        <time>2022-05-09T06:48:57.000Z</time>
      </trkpt>
      <trkpt lat="43.41921" lon="2.4618">
        <ele>1116</ele>
        <time>2022-05-09T06:50:46.000Z</time>
      </trkpt>
      <trkpt lat="43.4194" lon="2.46198">
        <ele>1118</ele>
        <time>2022-05-09T06:51:09.000Z</time>
      </trkpt>
      <trkpt lat="43.41959" lon="2.46218">
        <ele>1119</ele>
        <time>2022-05-09T06:51:30.000Z</time>
      </trkpt>
      <trkpt lat="43.41977" lon="2.46239">
        <ele>1120</ele>
        <time>2022-05-09T06:51:51.000Z</time>
      </trkpt>
      <trkpt lat="43.41996" lon="2.46261">
        <ele>1121</ele>
        <time>2022-05-09T06:52:12.000Z</time>
      </trkpt>
      <trkpt lat="43.42015" lon="2.46281">
        <ele>1122</ele>
        <time>2022-05-09T06:52:32.000Z</time>
      </trkpt>
      <trkpt lat="43.42035" lon="2.46302">
        <ele>1125</ele>
        <time>2022-05-09T06:52:55.000Z</time>
      </trkpt>
      <trkpt lat="43.42051" lon="2.46326">
        <ele>1127</ele>
        <time>2022-05-09T06:53:17.000Z</time>
      </trkpt>
      <trkpt lat="43.42068" lon="2.46347">
        <ele>1132</ele>
        <time>2022-05-09T06:53:40.000Z</time>
      </trkpt>
      <trkpt lat="43.4208" lon="2.46374">
        <ele>1135</ele>
        <time>2022-05-09T06:54:23.000Z</time>
      </trkpt>
      <trkpt lat="43.42097" lon="2.46395">
        <ele>1139</ele>
        <time>2022-05-09T06:54:49.000Z</time>
      </trkpt>
      <trkpt lat="43.42119" lon="2.46404">
        <ele>1144</ele>
        <time>2022-05-09T06:56:15.000Z</time>
      </trkpt>
      <trkpt lat="43.42142" lon="2.46415">
        <ele>1148</ele>
        <time>2022-05-09T06:56:39.000Z</time>
      </trkpt>
      <trkpt lat="43.42164" lon="2.46426">
        <ele>1153</ele>
        <time>2022-05-09T06:57:22.000Z</time>
      </trkpt>
      <trkpt lat="43.42187" lon="2.46436">
        <ele>1158</ele>
        <time>2022-05-09T06:58:01.000Z</time>
      </trkpt>
      <trkpt lat="43.4221" lon="2.46441">
        <ele>1162</ele>
        <time>2022-05-09T06:58:41.000Z</time>
      </trkpt>
      <trkpt lat="43.42234" lon="2.46443">
        <ele>1167</ele>
        <time>2022-05-09T06:59:21.000Z</time>
      </trkpt>
      <trkpt lat="43.42256" lon="2.46433">
        <ele>1174</ele>
        <time>2022-05-09T07:00:09.000Z</time>
      </trkpt>
      <trkpt lat="43.42278" lon="2.46423">
        <ele>1180</ele>
        <time>2022-05-09T07:00:48.000Z</time>
      </trkpt>
      <trkpt lat="43.42299" lon="2.46409">
        <ele>1186</ele>
        <time>2022-05-09T07:01:41.000Z</time>
      </trkpt>
      <trkpt lat="43.42319" lon="2.46391">
        <ele>1191</ele>
        <time>2022-05-09T07:02:18.000Z</time>
      </trkpt>
      <trkpt lat="43.4234" lon="2.46373">
        <ele>1196</ele>
        <time>2022-05-09T07:03:08.000Z</time>
      </trkpt>
      <trkpt lat="43.42363" lon="2.46365">
        <ele>1201</ele>
        <time>2022-05-09T07:03:58.000Z</time>
      </trkpt>
      <trkpt lat="43.42386" lon="2.4636">
        <ele>1205</ele>
        <time>2022-05-09T07:04:31.000Z</time>
      </trkpt>
      <trkpt lat="43.42409" lon="2.46357">
        <ele>1206</ele>
        <time>2022-05-09T07:05:03.000Z</time>
      </trkpt>
      <trkpt lat="43.42425" lon="2.46335">
        <ele>1209</ele>
        <time>2022-05-09T07:05:36.000Z</time>
      </trkpt>
      <trkpt lat="43.42409" lon="2.46312">
        <ele>1209</ele>
        <time>2022-05-09T07:06:06.000Z</time>
      </trkpt>
      <trkpt lat="43.42388" lon="2.46303">
        <ele>1208</ele>
        <time>2022-05-09T07:34:40.000Z</time>
      </trkpt>
      <trkpt lat="43.42374" lon="2.46276">
        <ele>1206</ele>
        <time>2022-05-09T07:35:04.000Z</time>
      </trkpt>
      <trkpt lat="43.42354" lon="2.46262">
        <ele>1201</ele>
        <time>2022-05-09T07:35:35.000Z</time>
      </trkpt>
      <trkpt lat="43.42331" lon="2.46274">
        <ele>1195</ele>
        <time>2022-05-09T07:36:21.000Z</time>
      </trkpt>
      <trkpt lat="43.42307" lon="2.46283">
        <ele>1185</ele>
        <time>2022-05-09T07:38:25.000Z</time>
      </trkpt>
      <trkpt lat="43.42283" lon="2.46285">
        <ele>1177</ele>
        <time>2022-05-09T07:38:41.000Z</time>
      </trkpt>
      <trkpt lat="43.42262" lon="2.46298">
        <ele>1171</ele>
        <time>2022-05-09T07:39:13.000Z</time>
      </trkpt>
      <trkpt lat="43.42238" lon="2.46305">
        <ele>1166</ele>
        <time>2022-05-09T07:39:39.000Z</time>
      </trkpt>
      <trkpt lat="43.42216" lon="2.4631">
        <ele>1160</ele>
        <time>2022-05-09T07:40:06.000Z</time>
      </trkpt>
      <trkpt lat="43.42192" lon="2.46314">
        <ele>1153</ele>
        <time>2022-05-09T07:40:33.000Z</time>
      </trkpt>
      <trkpt lat="43.42167" lon="2.46316">
        <ele>1147</ele>
        <time>2022-05-09T07:40:58.000Z</time>
      </trkpt>
      <trkpt lat="43.42144" lon="2.46322">
        <ele>1141</ele>
        <time>2022-05-09T07:41:27.000Z</time>
      </trkpt>
      <trkpt lat="43.42147" lon="2.4629">
        <ele>1139</ele>
        <time>2022-05-09T07:42:30.000Z</time>
      </trkpt>
      <trkpt lat="43.42156" lon="2.46257">
        <ele>1139</ele>
        <time>2022-05-09T07:42:52.000Z</time>
      </trkpt>
      <trkpt lat="43.42159" lon="2.46224">
        <ele>1135</ele>
        <time>2022-05-09T07:43:12.000Z</time>
      </trkpt>
      <trkpt lat="43.42164" lon="2.46193">
        <ele>1132</ele>
        <time>2022-05-09T07:43:30.000Z</time>
      </trkpt>
      <trkpt lat="43.42172" lon="2.46163">
        <ele>1130</ele>
        <time>2022-05-09T07:43:48.000Z</time>
      </trkpt>
      <trkpt lat="43.42181" lon="2.46133">
        <ele>1130</ele>
        <time>2022-05-09T07:44:08.000Z</time>
      </trkpt>
      <trkpt lat="43.42189" lon="2.46104">
        <ele>1127</ele>
        <time>2022-05-09T07:44:27.000Z</time>
      </trkpt>
      <trkpt lat="43.422" lon="2.46075">
        <ele>1128</ele>
        <time>2022-05-09T07:44:47.000Z</time>
      </trkpt>
      <trkpt lat="43.42205" lon="2.46044">
        <ele>1125</ele>
        <time>2022-05-09T07:45:06.000Z</time>
      </trkpt>
      <trkpt lat="43.42217" lon="2.46016">
        <ele>1125</ele>
        <time>2022-05-09T07:45:27.000Z</time>
      </trkpt>
      <trkpt lat="43.4222" lon="2.45986">
        <ele>1124</ele>
        <time>2022-05-09T07:45:44.000Z</time>
      </trkpt>
      <trkpt lat="43.42229" lon="2.45955">
        <ele>1122</ele>
        <time>2022-05-09T07:46:03.000Z</time>
      </trkpt>
      <trkpt lat="43.42227" lon="2.45923">
        <ele>1118</ele>
        <time>2022-05-09T07:46:23.000Z</time>
      </trkpt>
      <trkpt lat="43.4222" lon="2.4589">
        <ele>1113</ele>
        <time>2022-05-09T07:46:41.000Z</time>
      </trkpt>
      <trkpt lat="43.42213" lon="2.45859">
        <ele>1108</ele>
        <time>2022-05-09T07:46:59.000Z</time>
      </trkpt>
      <trkpt lat="43.42206" lon="2.45828">
        <ele>1102</ele>
        <time>2022-05-09T07:47:18.000Z</time>
      </trkpt>
      <trkpt lat="43.42207" lon="2.45793">
        <ele>1098</ele>
        <time>2022-05-09T07:47:38.000Z</time>
      </trkpt>
      <trkpt lat="43.42196" lon="2.45766">
        <ele>1092</ele>
        <time>2022-05-09T07:47:55.000Z</time>
      </trkpt>
      <trkpt lat="43.42201" lon="2.45733">
        <ele>1088</ele>
        <time>2022-05-09T07:48:26.000Z</time>
      </trkpt>
      <trkpt lat="43.42213" lon="2.45704">
        <ele>1087</ele>
        <time>2022-05-09T07:48:45.000Z</time>
      </trkpt>
      <trkpt lat="43.42229" lon="2.45679">
        <ele>1087</ele>
        <time>2022-05-09T07:49:06.000Z</time>
      </trkpt>
      <trkpt lat="43.42247" lon="2.45657">
        <ele>1085</ele>
        <time>2022-05-09T07:49:28.000Z</time>
      </trkpt>
      <trkpt lat="43.42266" lon="2.45639">
        <ele>1085</ele>
        <time>2022-05-09T07:49:48.000Z</time>
      </trkpt>
      <trkpt lat="43.42285" lon="2.4562">
        <ele>1085</ele>
        <time>2022-05-09T07:50:10.000Z</time>
      </trkpt>
      <trkpt lat="43.42306" lon="2.45606">
        <ele>1085</ele>
        <time>2022-05-09T07:50:31.000Z</time>
      </trkpt>
      <trkpt lat="43.42328" lon="2.45598">
        <ele>1086</ele>
        <time>2022-05-09T07:50:53.000Z</time>
      </trkpt>
      <trkpt lat="43.4235" lon="2.45585">
        <ele>1086</ele>
        <time>2022-05-09T07:51:14.000Z</time>
      </trkpt>
      <trkpt lat="43.42372" lon="2.45569">
        <ele>1084</ele>
        <time>2022-05-09T07:51:35.000Z</time>
      </trkpt>
      <trkpt lat="43.42396" lon="2.45559">
        <ele>1085</ele>
        <time>2022-05-09T07:51:56.000Z</time>
      </trkpt>
      <trkpt lat="43.42418" lon="2.45546">
        <ele>1083</ele>
        <time>2022-05-09T07:52:19.000Z</time>
      </trkpt>
      <trkpt lat="43.4244" lon="2.45533">
        <ele>1081</ele>
        <time>2022-05-09T07:52:39.000Z</time>
      </trkpt>
      <trkpt lat="43.42459" lon="2.45516">
        <ele>1081</ele>
        <time>2022-05-09T07:52:58.000Z</time>
      </trkpt>
      <trkpt lat="43.42482" lon="2.45501">
        <ele>1082</ele>
        <time>2022-05-09T07:53:18.000Z</time>
      </trkpt>
      <trkpt lat="43.42502" lon="2.45484">
        <ele>1079</ele>
        <time>2022-05-09T07:53:39.000Z</time>
      </trkpt>
      <trkpt lat="43.42525" lon="2.45474">
        <ele>1079</ele>
        <time>2022-05-09T07:53:59.000Z</time>
      </trkpt>
      <trkpt lat="43.42539" lon="2.45446">
        <ele>1078</ele>
        <time>2022-05-09T07:54:19.000Z</time>
      </trkpt>
      <trkpt lat="43.4253" lon="2.45414">
        <ele>1080</ele>
        <time>2022-05-09T07:54:38.000Z</time>
      </trkpt>
      <trkpt lat="43.42515" lon="2.45386">
        <ele>1078</ele>
        <time>2022-05-09T07:54:57.000Z</time>
      </trkpt>
      <trkpt lat="43.42499" lon="2.45359">
        <ele>1076</ele>
        <time>2022-05-09T07:55:15.000Z</time>
      </trkpt>
      <trkpt lat="43.42489" lon="2.45331">
        <ele>1076</ele>
        <time>2022-05-09T07:55:33.000Z</time>
      </trkpt>
      <trkpt lat="43.42483" lon="2.45297">
        <ele>1075</ele>
        <time>2022-05-09T07:55:50.000Z</time>
      </trkpt>
      <trkpt lat="43.42484" lon="2.45266">
        <ele>1074</ele>
        <time>2022-05-09T07:56:08.000Z</time>
      </trkpt>
      <trkpt lat="43.42486" lon="2.45232">
        <ele>1073</ele>
        <time>2022-05-09T07:56:25.000Z</time>
      </trkpt>
      <trkpt lat="43.42469" lon="2.45206">
        <ele>1074</ele>
        <time>2022-05-09T07:56:48.000Z</time>
      </trkpt>
      <trkpt lat="43.42446" lon="2.4519">
        <ele>1073</ele>
        <time>2022-05-09T07:57:06.000Z</time>
      </trkpt>
      <trkpt lat="43.42426" lon="2.4517">
        <ele>1072</ele>
        <time>2022-05-09T07:57:29.000Z</time>
      </trkpt>
      <trkpt lat="43.42406" lon="2.45151">
        <ele>1073</ele>
        <time>2022-05-09T07:57:45.000Z</time>
      </trkpt>
      <trkpt lat="43.42385" lon="2.45135">
        <ele>1073</ele>
        <time>2022-05-09T07:58:03.000Z</time>
      </trkpt>
      <trkpt lat="43.42366" lon="2.45117">
        <ele>1073</ele>
        <time>2022-05-09T07:58:19.000Z</time>
      </trkpt>
      <trkpt lat="43.42344" lon="2.45099">
        <ele>1069</ele>
        <time>2022-05-09T07:58:40.000Z</time>
      </trkpt>
      <trkpt lat="43.42321" lon="2.45086">
        <ele>1070</ele>
        <time>2022-05-09T07:58:58.000Z</time>
      </trkpt>
      <trkpt lat="43.42298" lon="2.45077">
        <ele>1070</ele>
        <time>2022-05-09T07:59:16.000Z</time>
      </trkpt>
      <trkpt lat="43.42275" lon="2.45065">
        <ele>1067</ele>
        <time>2022-05-09T07:59:33.000Z</time>
      </trkpt>
      <trkpt lat="43.42266" lon="2.45036">
        <ele>1067</ele>
        <time>2022-05-09T07:59:51.000Z</time>
      </trkpt>
      <trkpt lat="43.42259" lon="2.45003">
        <ele>1065</ele>
        <time>2022-05-09T08:00:10.000Z</time>
      </trkpt>
      <trkpt lat="43.42246" lon="2.44973">
        <ele>1065</ele>
        <time>2022-05-09T08:00:31.000Z</time>
      </trkpt>
      <trkpt lat="43.42229" lon="2.44946">
        <ele>1064</ele>
        <time>2022-05-09T08:00:49.000Z</time>
      </trkpt>
      <trkpt lat="43.42216" lon="2.4492">
        <ele>1065</ele>
        <time>2022-05-09T08:01:07.000Z</time>
      </trkpt>
      <trkpt lat="43.42203" lon="2.44895">
        <ele>1064</ele>
        <time>2022-05-09T08:01:24.000Z</time>
      </trkpt>
      <trkpt lat="43.42189" lon="2.44868">
        <ele>1062</ele>
        <time>2022-05-09T08:01:41.000Z</time>
      </trkpt>
      <trkpt lat="43.4218" lon="2.44839">
        <ele>1060</ele>
        <time>2022-05-09T08:01:57.000Z</time>
      </trkpt>
      <trkpt lat="43.42171" lon="2.44809">
        <ele>1059</ele>
        <time>2022-05-09T08:02:15.000Z</time>
      </trkpt>
      <trkpt lat="43.42156" lon="2.44784">
        <ele>1056</ele>
        <time>2022-05-09T08:02:37.000Z</time>
      </trkpt>
      <trkpt lat="43.42136" lon="2.44764">
        <ele>1052</ele>
        <time>2022-05-09T08:03:00.000Z</time>
      </trkpt>
      <trkpt lat="43.42114" lon="2.44752">
        <ele>1044</ele>
        <time>2022-05-09T08:03:22.000Z</time>
      </trkpt>
      <trkpt lat="43.42106" lon="2.44722">
        <ele>1040</ele>
        <time>2022-05-09T08:06:30.000Z</time>
      </trkpt>
      <trkpt lat="43.4212" lon="2.44697">
        <ele>1045</ele>
        <time>2022-05-09T08:06:48.000Z</time>
      </trkpt>
      <trkpt lat="43.42129" lon="2.44665">
        <ele>1046</ele>
        <time>2022-05-09T08:07:10.000Z</time>
      </trkpt>
      <trkpt lat="43.42144" lon="2.4464">
        <ele>1049</ele>
        <time>2022-05-09T08:07:29.000Z</time>
      </trkpt>
      <trkpt lat="43.42152" lon="2.44609">
        <ele>1049</ele>
        <time>2022-05-09T08:07:51.000Z</time>
      </trkpt>
      <trkpt lat="43.42164" lon="2.4458">
        <ele>1051</ele>
        <time>2022-05-09T08:08:09.000Z</time>
      </trkpt>
      <trkpt lat="43.42179" lon="2.44551">
        <ele>1052</ele>
        <time>2022-05-09T08:08:32.000Z</time>
      </trkpt>
      <trkpt lat="43.4219" lon="2.44524">
        <ele>1052</ele>
        <time>2022-05-09T08:08:50.000Z</time>
      </trkpt>
      <trkpt lat="43.422" lon="2.44494">
        <ele>1053</ele>
        <time>2022-05-09T08:09:10.000Z</time>
      </trkpt>
      <trkpt lat="43.42209" lon="2.4446">
        <ele>1052</ele>
        <time>2022-05-09T08:09:32.000Z</time>
      </trkpt>
      <trkpt lat="43.42222" lon="2.44434">
        <ele>1053</ele>
        <time>2022-05-09T08:09:51.000Z</time>
      </trkpt>
      <trkpt lat="43.42232" lon="2.44403">
        <ele>1052</ele>
        <time>2022-05-09T08:10:12.000Z</time>
      </trkpt>
      <trkpt lat="43.42244" lon="2.44374">
        <ele>1051</ele>
        <time>2022-05-09T08:10:32.000Z</time>
      </trkpt>
      <trkpt lat="43.42257" lon="2.44346">
        <ele>1050</ele>
        <time>2022-05-09T08:10:50.000Z</time>
      </trkpt>
      <trkpt lat="43.42266" lon="2.44315">
        <ele>1049</ele>
        <time>2022-05-09T08:11:08.000Z</time>
      </trkpt>
      <trkpt lat="43.42277" lon="2.44285">
        <ele>1047</ele>
        <time>2022-05-09T08:11:27.000Z</time>
      </trkpt>
      <trkpt lat="43.42285" lon="2.44253">
        <ele>1045</ele>
        <time>2022-05-09T08:11:49.000Z</time>
      </trkpt>
      <trkpt lat="43.42299" lon="2.44226">
        <ele>1043</ele>
        <time>2022-05-09T08:12:08.000Z</time>
      </trkpt>
      <trkpt lat="43.42312" lon="2.44201">
        <ele>1040</ele>
        <time>2022-05-09T08:12:26.000Z</time>
      </trkpt>
      <trkpt lat="43.42318" lon="2.44168">
        <ele>1038</ele>
        <time>2022-05-09T08:12:46.000Z</time>
      </trkpt>
      <trkpt lat="43.42318" lon="2.44136">
        <ele>1035</ele>
        <time>2022-05-09T08:13:06.000Z</time>
      </trkpt>
      <trkpt lat="43.42296" lon="2.44127">
        <ele>1033</ele>
        <time>2022-05-09T08:13:26.000Z</time>
      </trkpt>
      <trkpt lat="43.42288" lon="2.44095">
        <ele>1031</ele>
        <time>2022-05-09T08:13:44.000Z</time>
      </trkpt>
      <trkpt lat="43.42279" lon="2.44064">
        <ele>1030</ele>
        <time>2022-05-09T08:14:04.000Z</time>
      </trkpt>
      <trkpt lat="43.42257" lon="2.44051">
        <ele>1029</ele>
        <time>2022-05-09T08:14:29.000Z</time>
      </trkpt>
      <trkpt lat="43.42234" lon="2.44044">
        <ele>1028</ele>
        <time>2022-05-09T08:14:48.000Z</time>
      </trkpt>
      <trkpt lat="43.4221" lon="2.44042">
        <ele>1028</ele>
        <time>2022-05-09T08:15:08.000Z</time>
      </trkpt>
      <trkpt lat="43.42189" lon="2.44055">
        <ele>1024</ele>
        <time>2022-05-09T08:15:26.000Z</time>
      </trkpt>
      <trkpt lat="43.42166" lon="2.44061">
        <ele>1021</ele>
        <time>2022-05-09T08:15:46.000Z</time>
      </trkpt>
      <trkpt lat="43.42142" lon="2.44057">
        <ele>1017</ele>
        <time>2022-05-09T08:16:13.000Z</time>
      </trkpt>
      <trkpt lat="43.42121" lon="2.44044">
        <ele>1013</ele>
        <time>2022-05-09T08:16:36.000Z</time>
      </trkpt>
      <trkpt lat="43.42098" lon="2.44039">
        <ele>1006</ele>
        <time>2022-05-09T08:17:06.000Z</time>
      </trkpt>
      <trkpt lat="43.42076" lon="2.4403">
        <ele>1003</ele>
        <time>2022-05-09T08:17:32.000Z</time>
      </trkpt>
      <trkpt lat="43.42055" lon="2.44043">
        <ele>993</ele>
        <time>2022-05-09T08:18:37.000Z</time>
      </trkpt>
      <trkpt lat="43.42031" lon="2.44045">
        <ele>986</ele>
        <time>2022-05-09T08:18:52.000Z</time>
      </trkpt>
      <trkpt lat="43.42005" lon="2.44049">
        <ele>980</ele>
        <time>2022-05-09T08:19:28.000Z</time>
      </trkpt>
      <trkpt lat="43.41977" lon="2.44043">
        <ele>975</ele>
        <time>2022-05-09T08:20:01.000Z</time>
      </trkpt>
      <trkpt lat="43.41958" lon="2.44059">
        <ele>967</ele>
        <time>2022-05-09T08:22:44.000Z</time>
      </trkpt>
      <trkpt lat="43.41943" lon="2.44035">
        <ele>966</ele>
        <time>2022-05-09T08:35:10.000Z</time>
      </trkpt>
      <trkpt lat="43.41927" lon="2.44058">
        <ele>959</ele>
        <time>2022-05-09T08:35:40.000Z</time>
      </trkpt>
      <trkpt lat="43.41905" lon="2.44069">
        <ele>953</ele>
        <time>2022-05-09T08:36:49.000Z</time>
      </trkpt>
      <trkpt lat="43.41883" lon="2.4408">
        <ele>950</ele>
        <time>2022-05-09T08:37:07.000Z</time>
      </trkpt>
      <trkpt lat="43.41864" lon="2.44097">
        <ele>949</ele>
        <time>2022-05-09T08:37:35.000Z</time>
      </trkpt>
      <trkpt lat="43.41842" lon="2.44106">
        <ele>947</ele>
        <time>2022-05-09T08:38:15.000Z</time>
      </trkpt>
      <trkpt lat="43.4182" lon="2.44124">
        <ele>943</ele>
        <time>2022-05-09T08:38:38.000Z</time>
      </trkpt>
      <trkpt lat="43.41797" lon="2.44131">
        <ele>943</ele>
        <time>2022-05-09T08:38:55.000Z</time>
      </trkpt>
      <trkpt lat="43.41775" lon="2.4414">
        <ele>942</ele>
        <time>2022-05-09T08:39:16.000Z</time>
      </trkpt>
      <trkpt lat="43.41753" lon="2.44146">
        <ele>940</ele>
        <time>2022-05-09T08:39:38.000Z</time>
      </trkpt>
      <trkpt lat="43.41731" lon="2.44157">
        <ele>936</ele>
        <time>2022-05-09T08:40:12.000Z</time>
      </trkpt>
      <trkpt lat="43.4171" lon="2.44169">
        <ele>934</ele>
        <time>2022-05-09T08:40:24.000Z</time>
      </trkpt>
      <trkpt lat="43.41689" lon="2.44182">
        <ele>932</ele>
        <time>2022-05-09T08:40:46.000Z</time>
      </trkpt>
      <trkpt lat="43.41664" lon="2.44187">
        <ele>929</ele>
        <time>2022-05-09T08:41:15.000Z</time>
      </trkpt>
      <trkpt lat="43.41641" lon="2.442">
        <ele>925</ele>
        <time>2022-05-09T08:41:31.000Z</time>
      </trkpt>
      <trkpt lat="43.41621" lon="2.44218">
        <ele>925</ele>
        <time>2022-05-09T08:41:50.000Z</time>
      </trkpt>
      <trkpt lat="43.416" lon="2.44233">
        <ele>924</ele>
        <time>2022-05-09T08:42:14.000Z</time>
      </trkpt>
      <trkpt lat="43.41579" lon="2.44243">
        <ele>923</ele>
        <time>2022-05-09T08:42:29.000Z</time>
      </trkpt>
      <trkpt lat="43.41557" lon="2.44255">
        <ele>922</ele>
        <time>2022-05-09T08:42:48.000Z</time>
      </trkpt>
      <trkpt lat="43.4154" lon="2.44277">
        <ele>922</ele>
        <time>2022-05-09T08:43:14.000Z</time>
      </trkpt>
      <trkpt lat="43.41513" lon="2.44335">
        <ele>915</ele>
        <time>2022-05-09T08:43:32.000Z</time>
      </trkpt>
      <trkpt lat="43.41441" lon="2.4436">
        <ele>917</ele>
        <time>2022-05-09T08:44:58.000Z</time>
      </trkpt>
      <trkpt lat="43.4139" lon="2.44391">
        <ele>914</ele>
        <time>2022-05-09T08:45:24.000Z</time>
      </trkpt>
      <trkpt lat="43.41348" lon="2.44458">
        <ele>902</ele>
        <time>2022-05-09T08:47:03.000Z</time>
      </trkpt>
      <trkpt lat="43.41326" lon="2.44476">
        <ele>899</ele>
        <time>2022-05-09T08:47:26.000Z</time>
      </trkpt>
      <trkpt lat="43.41304" lon="2.44489">
        <ele>897</ele>
        <time>2022-05-09T08:47:48.000Z</time>
      </trkpt>
      <trkpt lat="43.41282" lon="2.44501">
        <ele>896</ele>
        <time>2022-05-09T08:48:06.000Z</time>
      </trkpt>
      <trkpt lat="43.41259" lon="2.44512">
        <ele>895</ele>
        <time>2022-05-09T08:48:28.000Z</time>
      </trkpt>
      <trkpt lat="43.41236" lon="2.44525">
        <ele>895</ele>
        <time>2022-05-09T08:48:52.000Z</time>
      </trkpt>
      <trkpt lat="43.41213" lon="2.44533">
        <ele>894</ele>
        <time>2022-05-09T08:49:09.000Z</time>
      </trkpt>
      <trkpt lat="43.41196" lon="2.44554">
        <ele>891</ele>
        <time>2022-05-09T08:49:26.000Z</time>
      </trkpt>
      <trkpt lat="43.41174" lon="2.44568">
        <ele>890</ele>
        <time>2022-05-09T08:49:47.000Z</time>
      </trkpt>
      <trkpt lat="43.41151" lon="2.44576">
        <ele>889</ele>
        <time>2022-05-09T08:54:46.000Z</time>
      </trkpt>
      <trkpt lat="43.41127" lon="2.44582">
        <ele>888</ele>
        <time>2022-05-09T08:55:07.000Z</time>
      </trkpt>
      <trkpt lat="43.41105" lon="2.44591">
        <ele>886</ele>
        <time>2022-05-09T08:55:33.000Z</time>
      </trkpt>
      <trkpt lat="43.4108" lon="2.44589">
        <ele>885</ele>
        <time>2022-05-09T08:56:04.000Z</time>
      </trkpt>
      <trkpt lat="43.41058" lon="2.44581">
        <ele>883</ele>
        <time>2022-05-09T08:56:18.000Z</time>
      </trkpt>
      <trkpt lat="43.4104" lon="2.44559">
        <ele>885</ele>
        <time>2022-05-09T08:56:36.000Z</time>
      </trkpt>
      <trkpt lat="43.41019" lon="2.44546">
        <ele>877</ele>
        <time>2022-05-09T08:57:03.000Z</time>
      </trkpt>
      <trkpt lat="43.41001" lon="2.44524">
        <ele>873</ele>
        <time>2022-05-09T08:57:36.000Z</time>
      </trkpt>
      <trkpt lat="43.40977" lon="2.44517">
        <ele>868</ele>
        <time>2022-05-09T08:58:30.000Z</time>
      </trkpt>
      <trkpt lat="43.40955" lon="2.44507">
        <ele>866</ele>
        <time>2022-05-09T08:58:45.000Z</time>
      </trkpt>
      <trkpt lat="43.40954" lon="2.44506">
        <ele>866</ele>
        <time>2022-05-09T09:00:36.000Z</time>
      </trkpt>
      <trkpt lat="43.40943" lon="2.44478">
        <ele>865</ele>
        <time>2022-05-09T09:00:54.000Z</time>
      </trkpt>
      <trkpt lat="43.4093" lon="2.44453">
        <ele>864</ele>
        <time>2022-05-09T09:01:12.000Z</time>
      </trkpt>
      <trkpt lat="43.40917" lon="2.44427">
        <ele>863</ele>
        <time>2022-05-09T09:01:39.000Z</time>
      </trkpt>
      <trkpt lat="43.40904" lon="2.44402">
        <ele>862</ele>
        <time>2022-05-09T09:01:55.000Z</time>
      </trkpt>
      <trkpt lat="43.40891" lon="2.44376">
        <ele>860</ele>
        <time>2022-05-09T09:02:12.000Z</time>
      </trkpt>
      <trkpt lat="43.40868" lon="2.44319">
        <ele>858</ele>
        <time>2022-05-09T09:02:48.000Z</time>
      </trkpt>
      <trkpt lat="43.40851" lon="2.44257">
        <ele>856</ele>
        <time>2022-05-09T09:03:36.000Z</time>
      </trkpt>
      <trkpt lat="43.40835" lon="2.44191">
        <ele>851</ele>
        <time>2022-05-09T09:03:56.000Z</time>
      </trkpt>
      <trkpt lat="43.40827" lon="2.44246">
        <ele>849</ele>
        <time>2022-05-09T09:04:42.000Z</time>
      </trkpt>
      <trkpt lat="43.40843" lon="2.44348">
        <ele>845</ele>
        <time>2022-05-09T09:38:20.000Z</time>
      </trkpt>
      <trkpt lat="43.40851" lon="2.4441">
        <ele>841</ele>
        <time>2022-05-09T09:38:59.000Z</time>
      </trkpt>
      <trkpt lat="43.4085" lon="2.44441">
        <ele>838</ele>
        <time>2022-05-09T09:39:17.000Z</time>
      </trkpt>
      <trkpt lat="43.40851" lon="2.44472">
        <ele>836</ele>
        <time>2022-05-09T09:39:34.000Z</time>
      </trkpt>
      <trkpt lat="43.4085" lon="2.44523">
        <ele>834</ele>
        <time>2022-05-09T09:40:16.000Z</time>
      </trkpt>
      <trkpt lat="43.40831" lon="2.44526">
        <ele>831</ele>
        <time>2022-05-09T09:40:39.000Z</time>
      </trkpt>
      <trkpt lat="43.4083" lon="2.4458">
        <ele>830</ele>
        <time>2022-05-09T09:41:24.000Z</time>
      </trkpt>
      <trkpt lat="43.40781" lon="2.44606">
        <ele>819</ele>
        <time>2022-05-09T09:42:24.000Z</time>
      </trkpt>
      <trkpt lat="43.40767" lon="2.44632">
        <ele>817</ele>
        <time>2022-05-09T09:42:51.000Z</time>
      </trkpt>
      <trkpt lat="43.40769" lon="2.44663">
        <ele>816</ele>
        <time>2022-05-09T09:43:17.000Z</time>
      </trkpt>
      <trkpt lat="43.40743" lon="2.44717">
        <ele>811</ele>
        <time>2022-05-09T09:44:11.000Z</time>
      </trkpt>
      <trkpt lat="43.40586" lon="2.44789">
        <ele>800</ele>
        <time>2022-05-09T09:47:21.000Z</time>
      </trkpt>
      <trkpt lat="43.40506" lon="2.44833">
        <ele>793</ele>
        <time>2022-05-09T09:48:59.000Z</time>
      </trkpt>
      <trkpt lat="43.40451" lon="2.44927">
        <ele>791</ele>
        <time>2022-05-09T09:50:40.000Z</time>
      </trkpt>
      <trkpt lat="43.40188" lon="2.45165">
        <ele>783</ele>
        <time>2022-05-09T09:56:40.000Z</time>
      </trkpt>
      <trkpt lat="43.40091" lon="2.4518">
        <ele>781</ele>
        <time>2022-05-09T09:58:31.000Z</time>
      </trkpt>
      <trkpt lat="43.39994" lon="2.45161">
        <ele>778</ele>
        <time>2022-05-09T10:00:23.000Z</time>
      </trkpt>
      <trkpt lat="43.39847" lon="2.4505">
        <ele>782</ele>
        <time>2022-05-09T10:04:17.000Z</time>
      </trkpt>
      <trkpt lat="43.39901" lon="2.44961">
        <ele>770</ele>
        <time>2022-05-09T10:05:53.000Z</time>
      </trkpt>
      <trkpt lat="43.399" lon="2.44771">
        <ele>770</ele>
        <time>2022-05-09T10:08:31.000Z</time>
      </trkpt>
      <trkpt lat="43.39977" lon="2.44709">
        <ele>775</ele>
        <time>2022-05-09T10:11:05.000Z</time>
      </trkpt>
      <trkpt lat="43.4003" lon="2.44595">
        <ele>775</ele>
        <time>2022-05-09T10:12:58.000Z</time>
      </trkpt>
      <trkpt lat="43.40085" lon="2.44341">
        <ele>771</ele>
        <time>2022-05-09T10:16:39.000Z</time>
      </trkpt>
      <trkpt lat="43.40145" lon="2.44333">
        <ele>774</ele>
        <time>2022-05-09T10:18:19.000Z</time>
      </trkpt>
      <trkpt lat="43.40203" lon="2.44385">
        <ele>779</ele>
        <time>2022-05-09T10:20:30.000Z</time>
      </trkpt>
      <trkpt lat="43.40192" lon="2.44041">
        <ele>781</ele>
        <time>2022-05-09T09:39:51.000Z</time>
      </trkpt>
    </trkseg>
  </trk>
</gpx>